<?xml version="1.0" encoding="UTF-8" standalone="no" ?>
<gpx xmlns="http://www.topografix.com/GPX/1/1" xmlns:xsi="http://www.w3.org/2001/XMLSchema-instance" xsi:schemaLocation="http://www.topografix.com/GPX/1/1 http://www.topografix.com/GPX/1/1/gpx.xsd" version="1.1" creator="VisuGPX - https://www.visugpx.com">
  <metadata>
    <name>luzech 6 descentes</name>
    <desc><![CDATA[parcours typé enduro avec de belles descentes]]></desc>
  </metadata>
  <trk>
    <name><![CDATA[2014-04-01-08-18-57]]></name>
    <trkseg>
      <trkpt lat="44.4441" lon="1.30379">
        <ele>250.803</ele>
        <time>2014-04-01T10:57:18Z</time>
      </trkpt>
      <trkpt lat="44.44415" lon="1.3037">
        <ele>249.789</ele>
        <time>2014-04-01T10:57:20Z</time>
      </trkpt>
      <trkpt lat="44.44437" lon="1.30352">
        <ele>248.156</ele>
        <time>2014-04-01T10:57:25Z</time>
      </trkpt>
      <trkpt lat="44.44448" lon="1.30346">
        <ele>247.818</ele>
        <time>2014-04-01T10:57:27Z</time>
      </trkpt>
      <trkpt lat="44.44465" lon="1.30344">
        <ele>247.772</ele>
        <time>2014-04-01T10:57:30Z</time>
      </trkpt>
      <trkpt lat="44.4448" lon="1.30335">
        <ele>246.637</ele>
        <time>2014-04-01T10:57:34Z</time>
      </trkpt>
      <trkpt lat="44.44498" lon="1.30305">
        <ele>242.98</ele>
        <time>2014-04-01T10:57:40Z</time>
      </trkpt>
      <trkpt lat="44.44514" lon="1.30298">
        <ele>241.363</ele>
        <time>2014-04-01T10:57:44Z</time>
      </trkpt>
      <trkpt lat="44.44517" lon="1.30294">
        <ele>240.638</ele>
        <time>2014-04-01T10:57:45Z</time>
      </trkpt>
      <trkpt lat="44.44529" lon="1.3028">
        <ele>238.216</ele>
        <time>2014-04-01T10:57:48Z</time>
      </trkpt>
      <trkpt lat="44.44547" lon="1.30264">
        <ele>234.984</ele>
        <time>2014-04-01T10:57:53Z</time>
      </trkpt>
      <trkpt lat="44.4456" lon="1.3025">
        <ele>231.94</ele>
        <time>2014-04-01T10:57:56Z</time>
      </trkpt>
      <trkpt lat="44.44571" lon="1.30242">
        <ele>229.642</ele>
        <time>2014-04-01T10:57:59Z</time>
      </trkpt>
      <trkpt lat="44.44592" lon="1.30218">
        <ele>224.022</ele>
        <time>2014-04-01T10:58:05Z</time>
      </trkpt>
      <trkpt lat="44.44601" lon="1.3021">
        <ele>221.18</ele>
        <time>2014-04-01T10:58:08Z</time>
      </trkpt>
      <trkpt lat="44.44612" lon="1.30204">
        <ele>218.329</ele>
        <time>2014-04-01T10:58:11Z</time>
      </trkpt>
      <trkpt lat="44.44617" lon="1.30198">
        <ele>216.328</ele>
        <time>2014-04-01T10:58:13Z</time>
      </trkpt>
      <trkpt lat="44.44628" lon="1.30172">
        <ele>209.932</ele>
        <time>2014-04-01T10:58:19Z</time>
      </trkpt>
      <trkpt lat="44.44637" lon="1.30165">
        <ele>207.556</ele>
        <time>2014-04-01T10:58:21Z</time>
      </trkpt>
      <trkpt lat="44.44656" lon="1.30145">
        <ele>201.711</ele>
        <time>2014-04-01T10:58:26Z</time>
      </trkpt>
      <trkpt lat="44.44668" lon="1.30132">
        <ele>197.385</ele>
        <time>2014-04-01T10:58:30Z</time>
      </trkpt>
      <trkpt lat="44.44675" lon="1.30127">
        <ele>195.193</ele>
        <time>2014-04-01T10:58:32Z</time>
      </trkpt>
      <trkpt lat="44.44687" lon="1.30114">
        <ele>191.36</ele>
        <time>2014-04-01T10:58:36Z</time>
      </trkpt>
      <trkpt lat="44.44694" lon="1.30091">
        <ele>186.457</ele>
        <time>2014-04-01T10:58:41Z</time>
      </trkpt>
      <trkpt lat="44.44702" lon="1.30075">
        <ele>181.57</ele>
        <time>2014-04-01T10:58:46Z</time>
      </trkpt>
      <trkpt lat="44.44712" lon="1.30072">
        <ele>179.645</ele>
        <time>2014-04-01T10:58:48Z</time>
      </trkpt>
      <trkpt lat="44.44726" lon="1.30065">
        <ele>176.399</ele>
        <time>2014-04-01T10:58:51Z</time>
      </trkpt>
      <trkpt lat="44.44746" lon="1.30049">
        <ele>171.068</ele>
        <time>2014-04-01T10:58:56Z</time>
      </trkpt>
      <trkpt lat="44.4477" lon="1.30039">
        <ele>165.281</ele>
        <time>2014-04-01T10:59:01Z</time>
      </trkpt>
      <trkpt lat="44.44772" lon="1.30029">
        <ele>162.999</ele>
        <time>2014-04-01T10:59:03Z</time>
      </trkpt>
      <trkpt lat="44.44775" lon="1.30025">
        <ele>161.692</ele>
        <time>2014-04-01T10:59:04Z</time>
      </trkpt>
      <trkpt lat="44.44795" lon="1.30002">
        <ele>154.045</ele>
        <time>2014-04-01T10:59:10Z</time>
      </trkpt>
      <trkpt lat="44.44801" lon="1.29996">
        <ele>152.381</ele>
        <time>2014-04-01T10:59:12Z</time>
      </trkpt>
      <trkpt lat="44.44813" lon="1.3">
        <ele>150.368</ele>
        <time>2014-04-01T10:59:16Z</time>
      </trkpt>
      <trkpt lat="44.44814" lon="1.30015">
        <ele>150.442</ele>
        <time>2014-04-01T10:59:19Z</time>
      </trkpt>
      <trkpt lat="44.44812" lon="1.30029">
        <ele>151.165</ele>
        <time>2014-04-01T10:59:23Z</time>
      </trkpt>
      <trkpt lat="44.44816" lon="1.30039">
        <ele>152.415</ele>
        <time>2014-04-01T10:59:29Z</time>
      </trkpt>
    </trkseg>
  </trk>
</gpx>